sensor_id;sensor_type;location;lat;lon;timestamp;P1;durP1;ratioP1;P2;durP2;ratioP2
21301;SDS011;10810;48.270;9.996;2023-12-20T00:42:38;5.13;;;2.20;;
21301;SDS011;10810;48.270;9.996;2023-12-20T00:51:42;3.83;;;1.93;;
21301;SDS011;10810;48.270;9.996;2023-12-20T02:52:56;5.50;;;2.50;;
21301;SDS011;10810;48.270;9.996;2023-12-20T03:24:57;4.90;;;2.33;;
21301;SDS011;10810;48.270;9.996;2023-12-20T03:40:38;5.03;;;2.43;;
21301;SDS011;10810;48.270;9.996;2023-12-20T04:41:03;2.87;;;1.70;;
21301;SDS011;10810;48.270;9.996;2023-12-20T04:47:07;3.00;;;1.20;;
21301;SDS011;10810;48.270;9.996;2023-12-20T04:50:50;2.70;;;1.37;;
21301;SDS011;10810;48.270;9.996;2023-12-20T04:55:58;2.40;;;1.40;;
21301;SDS011;10810;48.270;9.996;2023-12-20T04:58:45;2.27;;;1.30;;
21301;SDS011;10810;48.270;9.996;2023-12-20T05:17:48;2.83;;;1.43;;
21301;SDS011;10810;48.270;9.996;2023-12-20T05:24:22;3.57;;;1.60;;
21301;SDS011;10810;48.270;9.996;2023-12-20T05:27:36;3.60;;;1.63;;
21301;SDS011;10810;48.270;9.996;2023-12-20T05:30:10;3.17;;;1.50;;
21301;SDS011;10810;48.270;9.996;2023-12-20T05:33:01;2.83;;;1.50;;
21301;SDS011;10810;48.270;9.996;2023-12-20T05:35:55;2.97;;;1.60;;
21301;SDS011;10810;48.270;9.996;2023-12-20T05:39:17;2.97;;;1.53;;
21301;SDS011;10810;48.270;9.996;2023-12-20T05:41:50;3.17;;;1.67;;
21301;SDS011;10810;48.270;9.996;2023-12-20T05:50:16;3.97;;;1.90;;
21301;SDS011;10810;48.270;9.996;2023-12-20T05:52:45;3.27;;;1.90;;
21301;SDS011;10810;48.270;9.996;2023-12-20T05:55:44;4.77;;;1.90;;
21301;SDS011;10810;48.270;9.996;2023-12-20T05:58:29;4.00;;;2.00;;
21301;SDS011;10810;48.270;9.996;2023-12-20T06:02:53;3.80;;;1.90;;
21301;SDS011;10810;48.270;9.996;2023-12-20T06:04:27;4.17;;;2.00;;
21301;SDS011;10810;48.270;9.996;2023-12-20T06:07:08;5.77;;;2.30;;
21301;SDS011;10810;48.270;9.996;2023-12-20T06:10:06;5.33;;;2.20;;
21301;SDS011;10810;48.270;9.996;2023-12-20T06:12:24;4.47;;;2.20;;
21301;SDS011;10810;48.270;9.996;2023-12-20T06:14:54;4.73;;;2.50;;
21301;SDS011;10810;48.270;9.996;2023-12-20T06:17:24;4.00;;;2.30;;
21301;SDS011;10810;48.270;9.996;2023-12-20T06:20:02;5.80;;;2.53;;
21301;SDS011;10810;48.270;9.996;2023-12-20T06:22:41;6.03;;;2.80;;
21301;SDS011;10810;48.270;9.996;2023-12-20T06:25:16;5.30;;;2.70;;
21301;SDS011;10810;48.270;9.996;2023-12-20T06:27:43;5.20;;;2.40;;
21301;SDS011;10810;48.270;9.996;2023-12-20T06:30:10;5.67;;;2.90;;
21301;SDS011;10810;48.270;9.996;2023-12-20T06:32:38;8.63;;;3.00;;
21301;SDS011;10810;48.270;9.996;2023-12-20T06:35:08;7.97;;;3.23;;
21301;SDS011;10810;48.270;9.996;2023-12-20T06:37:50;6.30;;;3.00;;
21301;SDS011;10810;48.270;9.996;2023-12-20T06:40:19;5.73;;;3.07;;
21301;SDS011;10810;48.270;9.996;2023-12-20T06:42:58;6.43;;;3.03;;
21301;SDS011;10810;48.270;9.996;2023-12-20T06:45:26;7.53;;;3.17;;
21301;SDS011;10810;48.270;9.996;2023-12-20T06:47:53;7.07;;;3.37;;
21301;SDS011;10810;48.270;9.996;2023-12-20T06:50:20;7.17;;;3.10;;
21301;SDS011;10810;48.270;9.996;2023-12-20T06:52:49;7.63;;;3.30;;
21301;SDS011;10810;48.270;9.996;2023-12-20T06:55:18;5.90;;;2.93;;
21301;SDS011;10810;48.270;9.996;2023-12-20T06:57:46;7.57;;;3.40;;
21301;SDS011;10810;48.270;9.996;2023-12-20T07:00:15;7.63;;;3.20;;
21301;SDS011;10810;48.270;9.996;2023-12-20T07:02:45;7.43;;;3.53;;
21301;SDS011;10810;48.270;9.996;2023-12-20T07:05:17;8.70;;;3.53;;
21301;SDS011;10810;48.270;9.996;2023-12-20T07:07:45;6.70;;;3.10;;
21301;SDS011;10810;48.270;9.996;2023-12-20T07:10:21;6.43;;;3.23;;
21301;SDS011;10810;48.270;9.996;2023-12-20T07:12:54;7.07;;;3.57;;
21301;SDS011;10810;48.270;9.996;2023-12-20T07:15:32;7.10;;;3.50;;
21301;SDS011;10810;48.270;9.996;2023-12-20T07:18:08;7.07;;;3.70;;
21301;SDS011;10810;48.270;9.996;2023-12-20T07:20:35;8.90;;;3.90;;
21301;SDS011;10810;48.270;9.996;2023-12-20T07:23:03;6.80;;;3.37;;
21301;SDS011;10810;48.270;9.996;2023-12-20T07:25:34;8.85;;;4.90;;
21301;SDS011;10810;48.270;9.996;2023-12-20T07:28:01;8.17;;;3.90;;
21301;SDS011;10810;48.270;9.996;2023-12-20T07:30:29;7.60;;;3.73;;
21301;SDS011;10810;48.270;9.996;2023-12-20T07:33:02;7.93;;;3.60;;
21301;SDS011;10810;48.270;9.996;2023-12-20T07:35:30;7.33;;;3.70;;
21301;SDS011;10810;48.270;9.996;2023-12-20T07:37:58;8.93;;;3.90;;
21301;SDS011;10810;48.270;9.996;2023-12-20T07:40:27;6.60;;;3.50;;
21301;SDS011;10810;48.270;9.996;2023-12-20T07:43:03;6.73;;;3.50;;
21301;SDS011;10810;48.270;9.996;2023-12-20T07:45:45;6.60;;;3.23;;
21301;SDS011;10810;48.270;9.996;2023-12-20T07:48:15;7.87;;;3.30;;
21301;SDS011;10810;48.270;9.996;2023-12-20T07:50:44;6.63;;;3.47;;
21301;SDS011;10810;48.270;9.996;2023-12-20T07:53:20;7.40;;;3.10;;
21301;SDS011;10810;48.270;9.996;2023-12-20T07:55:50;7.70;;;3.10;;
21301;SDS011;10810;48.270;9.996;2023-12-20T07:58:20;8.93;;;3.43;;
21301;SDS011;10810;48.270;9.996;2023-12-20T08:00:48;7.77;;;3.60;;
21301;SDS011;10810;48.270;9.996;2023-12-20T08:03:15;6.23;;;3.03;;
21301;SDS011;10810;48.270;9.996;2023-12-20T08:05:42;6.77;;;3.40;;
21301;SDS011;10810;48.270;9.996;2023-12-20T08:08:11;6.40;;;3.10;;
21301;SDS011;10810;48.270;9.996;2023-12-20T08:10:39;7.27;;;3.00;;
21301;SDS011;10810;48.270;9.996;2023-12-20T08:13:08;8.57;;;3.30;;
21301;SDS011;10810;48.270;9.996;2023-12-20T08:18:31;7.37;;;3.13;;
21301;SDS011;10810;48.270;9.996;2023-12-20T08:21:04;6.93;;;3.30;;
21301;SDS011;10810;48.270;9.996;2023-12-20T08:23:39;8.40;;;3.40;;
21301;SDS011;10810;48.270;9.996;2023-12-20T08:26:10;8.17;;;3.80;;
21301;SDS011;10810;48.270;9.996;2023-12-20T08:28:37;6.30;;;3.20;;
21301;SDS011;10810;48.270;9.996;2023-12-20T08:31:05;7.47;;;3.67;;
21301;SDS011;10810;48.270;9.996;2023-12-20T08:33:33;8.00;;;3.60;;
21301;SDS011;10810;48.270;9.996;2023-12-20T08:36:00;8.47;;;3.87;;
21301;SDS011;10810;48.270;9.996;2023-12-20T08:38:30;7.00;;;3.17;;
21301;SDS011;10810;48.270;9.996;2023-12-20T08:40:57;8.60;;;3.97;;
21301;SDS011;10810;48.270;9.996;2023-12-20T08:43:24;7.30;;;3.53;;
21301;SDS011;10810;48.270;9.996;2023-12-20T08:45:52;8.43;;;3.57;;
21301;SDS011;10810;48.270;9.996;2023-12-20T08:48:20;8.07;;;3.60;;
21301;SDS011;10810;48.270;9.996;2023-12-20T08:50:49;8.27;;;3.53;;
21301;SDS011;10810;48.270;9.996;2023-12-20T08:53:17;6.77;;;3.43;;
21301;SDS011;10810;48.270;9.996;2023-12-20T08:55:50;7.83;;;3.70;;
21301;SDS011;10810;48.270;9.996;2023-12-20T08:58:28;9.33;;;3.80;;
21301;SDS011;10810;48.270;9.996;2023-12-20T09:01:05;7.07;;;3.47;;
21301;SDS011;10810;48.270;9.996;2023-12-20T09:03:37;7.30;;;3.70;;
21301;SDS011;10810;48.270;9.996;2023-12-20T09:06:25;7.67;;;3.60;;
21301;SDS011;10810;48.270;9.996;2023-12-20T09:09:02;7.13;;;3.50;;
21301;SDS011;10810;48.270;9.996;2023-12-20T09:11:59;7.17;;;3.53;;
21301;SDS011;10810;48.270;9.996;2023-12-20T09:14:39;8.07;;;3.67;;
21301;SDS011;10810;48.270;9.996;2023-12-20T09:17:33;9.00;;;3.70;;
21301;SDS011;10810;48.270;9.996;2023-12-20T09:23:15;9.07;;;3.83;;
21301;SDS011;10810;48.270;9.996;2023-12-20T09:26:10;8.23;;;3.60;;
21301;SDS011;10810;48.270;9.996;2023-12-20T09:30:14;9.17;;;3.73;;
21301;SDS011;10810;48.270;9.996;2023-12-20T09:34:42;7.43;;;3.43;;
21301;SDS011;10810;48.270;9.996;2023-12-20T09:38:46;7.97;;;3.00;;
21301;SDS011;10810;48.270;9.996;2023-12-20T09:46:01;5.73;;;3.00;;
21301;SDS011;10810;48.270;9.996;2023-12-20T09:48:32;7.77;;;3.30;;
21301;SDS011;10810;48.270;9.996;2023-12-20T09:51:02;8.87;;;3.50;;
21301;SDS011;10810;48.270;9.996;2023-12-20T09:53:33;6.30;;;3.03;;
21301;SDS011;10810;48.270;9.996;2023-12-20T09:56:13;6.67;;;3.37;;
21301;SDS011;10810;48.270;9.996;2023-12-20T09:59:09;8.00;;;3.40;;
21301;SDS011;10810;48.270;9.996;2023-12-20T10:01:40;6.73;;;3.20;;
21301;SDS011;10810;48.270;9.996;2023-12-20T10:04:10;5.93;;;2.90;;
21301;SDS011;10810;48.270;9.996;2023-12-20T10:06:41;4.27;;;2.33;;
21301;SDS011;10810;48.270;9.996;2023-12-20T10:09:24;5.90;;;2.87;;
21301;SDS011;10810;48.270;9.996;2023-12-20T10:11:54;5.57;;;2.73;;
21301;SDS011;10810;48.270;9.996;2023-12-20T10:14:22;6.63;;;2.90;;
21301;SDS011;10810;48.270;9.996;2023-12-20T10:16:51;6.57;;;3.00;;
21301;SDS011;10810;48.270;9.996;2023-12-20T10:19:19;6.10;;;2.97;;
21301;SDS011;10810;48.270;9.996;2023-12-20T10:21:46;6.47;;;2.73;;
21301;SDS011;10810;48.270;9.996;2023-12-20T10:24:16;5.13;;;2.80;;
21301;SDS011;10810;48.270;9.996;2023-12-20T10:26:44;7.43;;;3.40;;
21301;SDS011;10810;48.270;9.996;2023-12-20T10:29:13;7.20;;;3.27;;
21301;SDS011;10810;48.270;9.996;2023-12-20T10:31:41;5.70;;;2.83;;
21301;SDS011;10810;48.270;9.996;2023-12-20T10:34:12;5.17;;;2.60;;
21301;SDS011;10810;48.270;9.996;2023-12-20T10:36:39;5.30;;;2.77;;
21301;SDS011;10810;48.270;9.996;2023-12-20T10:39:07;4.77;;;2.50;;
21301;SDS011;10810;48.270;9.996;2023-12-20T10:41:38;5.33;;;2.70;;
21301;SDS011;10810;48.270;9.996;2023-12-20T10:44:06;5.83;;;2.83;;
21301;SDS011;10810;48.270;9.996;2023-12-20T10:46:48;5.80;;;2.80;;
21301;SDS011;10810;48.270;9.996;2023-12-20T10:52:43;2.67;;;1.40;;
21301;SDS011;10810;48.270;9.996;2023-12-20T10:55:23;1.30;;;0.90;;
21301;SDS011;10810;48.270;9.996;2023-12-20T10:57:51;1.03;;;0.50;;
21301;SDS011;10810;48.270;9.996;2023-12-20T11:00:19;0.73;;;0.40;;
21301;SDS011;10810;48.270;9.996;2023-12-20T11:02:49;0.67;;;0.40;;
21301;SDS011;10810;48.270;9.996;2023-12-20T11:05:36;0.30;;;0.30;;
21301;SDS011;10810;48.270;9.996;2023-12-20T11:08:08;1.00;;;0.50;;
21301;SDS011;10810;48.270;9.996;2023-12-20T11:10:43;0.63;;;0.40;;
21301;SDS011;10810;48.270;9.996;2023-12-20T11:13:17;1.23;;;0.30;;
21301;SDS011;10810;48.270;9.996;2023-12-20T11:15:48;0.73;;;0.40;;
21301;SDS011;10810;48.270;9.996;2023-12-20T11:18:16;0.70;;;0.40;;
21301;SDS011;10810;48.270;9.996;2023-12-20T11:20:52;0.83;;;0.50;;
21301;SDS011;10810;48.270;9.996;2023-12-20T11:23:24;0.60;;;0.47;;
21301;SDS011;10810;48.270;9.996;2023-12-20T11:25:52;0.90;;;0.53;;
21301;SDS011;10810;48.270;9.996;2023-12-20T11:28:20;0.90;;;0.60;;
21301;SDS011;10810;48.270;9.996;2023-12-20T11:30:49;1.70;;;0.73;;
21301;SDS011;10810;48.270;9.996;2023-12-20T11:33:17;1.00;;;0.70;;
21301;SDS011;10810;48.270;9.996;2023-12-20T11:35:48;2.27;;;0.83;;
21301;SDS011;10810;48.270;9.996;2023-12-20T11:38:15;1.93;;;1.00;;
21301;SDS011;10810;48.270;9.996;2023-12-20T11:40:44;1.43;;;1.00;;
21301;SDS011;10810;48.270;9.996;2023-12-20T11:43:11;2.77;;;1.00;;
21301;SDS011;10810;48.270;9.996;2023-12-20T11:45:39;2.33;;;1.30;;
21301;SDS011;10810;48.270;9.996;2023-12-20T11:48:16;4.37;;;1.53;;
21301;SDS011;10810;48.270;9.996;2023-12-20T11:50:44;3.27;;;1.40;;
21301;SDS011;10810;48.270;9.996;2023-12-20T11:53:11;2.47;;;1.30;;
21301;SDS011;10810;48.270;9.996;2023-12-20T11:55:39;3.10;;;1.40;;
21301;SDS011;10810;48.270;9.996;2023-12-20T11:58:23;3.30;;;1.37;;
21301;SDS011;10810;48.270;9.996;2023-12-20T12:01:12;3.10;;;1.27;;
21301;SDS011;10810;48.270;9.996;2023-12-20T12:04:10;4.23;;;1.20;;
21301;SDS011;10810;48.270;9.996;2023-12-20T12:07:16;2.63;;;1.47;;
21301;SDS011;10810;48.270;9.996;2023-12-20T12:10:24;1.77;;;1.13;;
21301;SDS011;10810;48.270;9.996;2023-12-20T12:12:43;3.03;;;1.13;;
21301;SDS011;10810;48.270;9.996;2023-12-20T12:15:12;2.37;;;1.30;;
21301;SDS011;10810;48.270;9.996;2023-12-20T12:17:40;2.53;;;1.20;;
21301;SDS011;10810;48.270;9.996;2023-12-20T12:20:19;2.13;;;1.20;;
21301;SDS011;10810;48.270;9.996;2023-12-20T12:24:01;2.77;;;1.20;;
21301;SDS011;10810;48.270;9.996;2023-12-20T12:29:22;3.27;;;1.40;;
21301;SDS011;10810;48.270;9.996;2023-12-20T12:31:53;2.57;;;1.33;;
21301;SDS011;10810;48.270;9.996;2023-12-20T12:34:51;3.77;;;1.30;;
21301;SDS011;10810;48.270;9.996;2023-12-20T12:37:23;1.87;;;1.20;;
21301;SDS011;10810;48.270;9.996;2023-12-20T12:40:05;2.47;;;0.93;;
21301;SDS011;10810;48.270;9.996;2023-12-20T12:42:58;1.47;;;0.90;;
21301;SDS011;10810;48.270;9.996;2023-12-20T12:46:04;3.13;;;1.03;;
21301;SDS011;10810;48.270;9.996;2023-12-20T12:54:43;3.63;;;1.03;;
21301;SDS011;10810;48.270;9.996;2023-12-20T12:57:13;1.67;;;0.97;;
21301;SDS011;10810;48.270;9.996;2023-12-20T13:00:00;1.43;;;0.90;;
21301;SDS011;10810;48.270;9.996;2023-12-20T13:02:40;1.40;;;0.90;;
21301;SDS011;10810;48.270;9.996;2023-12-20T13:05:20;1.57;;;1.00;;
21301;SDS011;10810;48.270;9.996;2023-12-20T13:08:24;2.70;;;1.00;;
21301;SDS011;10810;48.270;9.996;2023-12-20T13:13:57;2.43;;;1.20;;
21301;SDS011;10810;48.270;9.996;2023-12-20T13:16:26;2.67;;;1.20;;
21301;SDS011;10810;48.270;9.996;2023-12-20T13:18:53;1.93;;;1.33;;
21301;SDS011;10810;48.270;9.996;2023-12-20T13:21:21;2.40;;;1.20;;
21301;SDS011;10810;48.270;9.996;2023-12-20T13:23:54;4.17;;;1.20;;
21301;SDS011;10810;48.270;9.996;2023-12-20T13:26:21;1.53;;;1.10;;
21301;SDS011;10810;48.270;9.996;2023-12-20T13:28:49;1.50;;;1.10;;
21301;SDS011;10810;48.270;9.996;2023-12-20T13:31:19;2.50;;;1.20;;
21301;SDS011;10810;48.270;9.996;2023-12-20T13:33:46;3.60;;;1.30;;
21301;SDS011;10810;48.270;9.996;2023-12-20T13:36:13;1.93;;;1.20;;
21301;SDS011;10810;48.270;9.996;2023-12-20T13:38:48;2.33;;;1.30;;
21301;SDS011;10810;48.270;9.996;2023-12-20T13:41:18;1.60;;;1.00;;
21301;SDS011;10810;48.270;9.996;2023-12-20T13:43:46;4.63;;;1.30;;
21301;SDS011;10810;48.270;9.996;2023-12-20T13:46:16;1.80;;;1.13;;
21301;SDS011;10810;48.270;9.996;2023-12-20T13:54:27;3.30;;;1.60;;
21301;SDS011;10810;48.270;9.996;2023-12-20T13:57:06;3.90;;;2.00;;
21301;SDS011;10810;48.270;9.996;2023-12-20T13:59:35;3.67;;;1.60;;
21301;SDS011;10810;48.270;9.996;2023-12-20T14:02:07;2.13;;;1.20;;
21301;SDS011;10810;48.270;9.996;2023-12-20T14:10:53;5.13;;;1.50;;
21301;SDS011;10810;48.270;9.996;2023-12-20T14:13:21;1.80;;;1.20;;
21301;SDS011;10810;48.270;9.996;2023-12-20T14:15:49;2.87;;;1.27;;
21301;SDS011;10810;48.270;9.996;2023-12-20T14:18:17;3.90;;;1.60;;
21301;SDS011;10810;48.270;9.996;2023-12-20T14:20:44;3.67;;;1.30;;
21301;SDS011;10810;48.270;9.996;2023-12-20T14:23:12;4.90;;;1.90;;
21301;SDS011;10810;48.270;9.996;2023-12-20T14:25:40;4.03;;;2.00;;
21301;SDS011;10810;48.270;9.996;2023-12-20T14:28:09;6.43;;;2.60;;
21301;SDS011;10810;48.270;9.996;2023-12-20T14:30:39;8.00;;;2.30;;
21301;SDS011;10810;48.270;9.996;2023-12-20T14:33:06;3.40;;;1.57;;
21301;SDS011;10810;48.270;9.996;2023-12-20T14:35:33;4.37;;;1.40;;
21301;SDS011;10810;48.270;9.996;2023-12-20T14:38:01;4.70;;;1.70;;
21301;SDS011;10810;48.270;9.996;2023-12-20T14:40:28;5.27;;;1.50;;
21301;SDS011;10810;48.270;9.996;2023-12-20T14:42:55;3.37;;;1.47;;
21301;SDS011;10810;48.270;9.996;2023-12-20T14:45:24;5.03;;;1.60;;
21301;SDS011;10810;48.270;9.996;2023-12-20T14:47:52;3.63;;;1.30;;
21301;SDS011;10810;48.270;9.996;2023-12-20T14:50:25;3.13;;;1.43;;
21301;SDS011;10810;48.270;9.996;2023-12-20T14:52:53;4.50;;;1.40;;
21301;SDS011;10810;48.270;9.996;2023-12-20T14:55:20;5.53;;;1.53;;
21301;SDS011;10810;48.270;9.996;2023-12-20T14:57:48;2.67;;;1.13;;
21301;SDS011;10810;48.270;9.996;2023-12-20T15:00:15;4.13;;;1.30;;
21301;SDS011;10810;48.270;9.996;2023-12-20T15:02:45;3.10;;;1.13;;
21301;SDS011;10810;48.270;9.996;2023-12-20T15:05:13;3.77;;;1.23;;
21301;SDS011;10810;48.270;9.996;2023-12-20T15:07:40;2.10;;;1.20;;
21301;SDS011;10810;48.270;9.996;2023-12-20T15:10:09;4.13;;;1.10;;
21301;SDS011;10810;48.270;9.996;2023-12-20T15:12:36;2.60;;;1.17;;
21301;SDS011;10810;48.270;9.996;2023-12-20T15:15:06;5.43;;;1.20;;
21301;SDS011;10810;48.270;9.996;2023-12-20T15:17:34;1.90;;;1.10;;
21301;SDS011;10810;48.270;9.996;2023-12-20T15:22:55;3.13;;;0.93;;
21301;SDS011;10810;48.270;9.996;2023-12-20T15:25:24;2.60;;;0.90;;
21301;SDS011;10810;48.270;9.996;2023-12-20T15:27:51;3.37;;;1.20;;
21301;SDS011;10810;48.270;9.996;2023-12-20T15:30:18;3.20;;;1.23;;
21301;SDS011;10810;48.270;9.996;2023-12-20T15:32:49;5.97;;;1.70;;
21301;SDS011;10810;48.270;9.996;2023-12-20T15:35:17;3.83;;;1.10;;
21301;SDS011;10810;48.270;9.996;2023-12-20T15:37:47;3.40;;;1.17;;
21301;SDS011;10810;48.270;9.996;2023-12-20T15:40:20;2.37;;;1.07;;
21301;SDS011;10810;48.270;9.996;2023-12-20T15:42:49;4.03;;;0.90;;
21301;SDS011;10810;48.270;9.996;2023-12-20T15:45:20;3.97;;;1.20;;
21301;SDS011;10810;48.270;9.996;2023-12-20T15:47:48;3.27;;;1.10;;
21301;SDS011;10810;48.270;9.996;2023-12-20T15:50:15;2.10;;;1.00;;
21301;SDS011;10810;48.270;9.996;2023-12-20T15:52:45;4.73;;;1.20;;
21301;SDS011;10810;48.270;9.996;2023-12-20T15:55:12;3.70;;;1.10;;
21301;SDS011;10810;48.270;9.996;2023-12-20T15:57:41;6.00;;;1.33;;
21301;SDS011;10810;48.270;9.996;2023-12-20T16:00:11;3.17;;;1.20;;
21301;SDS011;10810;48.270;9.996;2023-12-20T16:02:38;5.53;;;1.30;;
21301;SDS011;10810;48.270;9.996;2023-12-20T16:05:08;4.80;;;1.40;;
21301;SDS011;10810;48.270;9.996;2023-12-20T16:07:36;3.20;;;1.10;;
21301;SDS011;10810;48.270;9.996;2023-12-20T16:10:05;3.97;;;1.00;;
21301;SDS011;10810;48.270;9.996;2023-12-20T16:12:33;2.70;;;0.97;;
21301;SDS011;10810;48.270;9.996;2023-12-20T16:15:04;2.00;;;0.87;;
21301;SDS011;10810;48.270;9.996;2023-12-20T16:17:33;3.53;;;1.30;;
21301;SDS011;10810;48.270;9.996;2023-12-20T16:20:01;7.67;;;1.97;;
21301;SDS011;10810;48.270;9.996;2023-12-20T16:22:33;2.57;;;1.03;;
21301;SDS011;10810;48.270;9.996;2023-12-20T16:25:03;2.30;;;0.80;;
21301;SDS011;10810;48.270;9.996;2023-12-20T16:27:32;4.73;;;0.90;;
21301;SDS011;10810;48.270;9.996;2023-12-20T16:30:01;1.20;;;0.90;;
21301;SDS011;10810;48.270;9.996;2023-12-20T16:32:29;11.07;;;3.27;;
21301;SDS011;10810;48.270;9.996;2023-12-20T16:34:56;17.47;;;5.10;;
21301;SDS011;10810;48.270;9.996;2023-12-20T16:37:23;7.07;;;2.57;;
21301;SDS011;10810;48.270;9.996;2023-12-20T16:39:51;5.57;;;1.73;;
21301;SDS011;10810;48.270;9.996;2023-12-20T16:42:18;9.57;;;2.87;;
21301;SDS011;10810;48.270;9.996;2023-12-20T16:44:47;7.23;;;1.50;;
21301;SDS011;10810;48.270;9.996;2023-12-20T16:50:12;3.53;;;1.20;;
21301;SDS011;10810;48.270;9.996;2023-12-20T16:52:46;5.03;;;1.67;;
21301;SDS011;10810;48.270;9.996;2023-12-20T16:55:47;5.00;;;1.60;;
21301;SDS011;10810;48.270;9.996;2023-12-20T16:58:26;6.87;;;1.30;;
21301;SDS011;10810;48.270;9.996;2023-12-20T17:00:57;4.63;;;1.20;;
21301;SDS011;10810;48.270;9.996;2023-12-20T17:03:38;4.87;;;1.60;;
21301;SDS011;10810;48.270;9.996;2023-12-20T17:21:35;5.50;;;1.20;;
21301;SDS011;10810;48.270;9.996;2023-12-20T17:24:12;3.77;;;1.40;;
21301;SDS011;10810;48.270;9.996;2023-12-20T17:26:40;2.23;;;1.10;;
21301;SDS011;10810;48.270;9.996;2023-12-20T17:32:18;4.17;;;1.60;;
21301;SDS011;10810;48.270;9.996;2023-12-20T17:35:47;3.13;;;1.20;;
21301;SDS011;10810;48.270;9.996;2023-12-20T17:38:25;6.17;;;1.30;;
21301;SDS011;10810;48.270;9.996;2023-12-20T17:44:11;3.67;;;1.63;;
21301;SDS011;10810;48.270;9.996;2023-12-20T17:46:42;4.07;;;1.10;;
21301;SDS011;10810;48.270;9.996;2023-12-20T17:49:32;3.57;;;1.23;;
21301;SDS011;10810;48.270;9.996;2023-12-20T17:52:28;5.67;;;1.60;;
21301;SDS011;10810;48.270;9.996;2023-12-20T17:58:25;3.40;;;1.30;;
21301;SDS011;10810;48.270;9.996;2023-12-20T18:04:12;4.17;;;1.70;;
21301;SDS011;10810;48.270;9.996;2023-12-20T18:06:47;5.63;;;1.60;;
21301;SDS011;10810;48.270;9.996;2023-12-20T18:12:20;2.93;;;1.30;;
21301;SDS011;10810;48.270;9.996;2023-12-20T18:18:11;4.43;;;1.90;;
21301;SDS011;10810;48.270;9.996;2023-12-20T18:24:00;3.20;;;1.40;;
21301;SDS011;10810;48.270;9.996;2023-12-20T18:29:53;3.03;;;1.67;;
21301;SDS011;10810;48.270;9.996;2023-12-20T18:34:33;2.97;;;1.60;;
21301;SDS011;10810;48.270;9.996;2023-12-20T18:41:44;4.30;;;1.80;;
21301;SDS011;10810;48.270;9.996;2023-12-20T20:03:58;5.90;;;1.50;;
21301;SDS011;10810;48.270;9.996;2023-12-20T20:18:58;3.50;;;1.40;;
21301;SDS011;10810;48.270;9.996;2023-12-20T20:30:36;6.20;;;1.53;;
21301;SDS011;10810;48.270;9.996;2023-12-20T20:33:23;7.73;;;1.53;;
21301;SDS011;10810;48.270;9.996;2023-12-20T20:36:05;7.93;;;1.77;;
21301;SDS011;10810;48.270;9.996;2023-12-20T20:44:58;4.27;;;1.60;;
21301;SDS011;10810;48.270;9.996;2023-12-20T20:50:30;5.40;;;1.53;;
21301;SDS011;10810;48.270;9.996;2023-12-20T20:52:59;5.40;;;1.60;;
21301;SDS011;10810;48.270;9.996;2023-12-20T20:55:27;4.47;;;1.80;;
21301;SDS011;10810;48.270;9.996;2023-12-20T20:57:54;6.60;;;1.80;;
21301;SDS011;10810;48.270;9.996;2023-12-20T21:00:38;5.23;;;1.57;;
21301;SDS011;10810;48.270;9.996;2023-12-20T22:02:58;6.13;;;1.33;;
21301;SDS011;10810;48.270;9.996;2023-12-20T22:05:41;3.37;;;1.23;;
21301;SDS011;10810;48.270;9.996;2023-12-20T22:15:19;6.93;;;1.30;;
21301;SDS011;10810;48.270;9.996;2023-12-20T22:33:14;5.90;;;1.17;;
21301;SDS011;10810;48.270;9.996;2023-12-20T22:36:14;2.83;;;1.20;;
21301;SDS011;10810;48.270;9.996;2023-12-20T22:42:06;2.57;;;1.03;;
21301;SDS011;10810;48.270;9.996;2023-12-20T22:45:26;3.93;;;1.13;;
21301;SDS011;10810;48.270;9.996;2023-12-20T22:48:10;3.63;;;1.00;;
21301;SDS011;10810;48.270;9.996;2023-12-20T22:50:46;3.80;;;1.10;;
21301;SDS011;10810;48.270;9.996;2023-12-20T22:53:24;2.80;;;1.10;;
21301;SDS011;10810;48.270;9.996;2023-12-20T22:56:01;2.10;;;0.90;;
21301;SDS011;10810;48.270;9.996;2023-12-20T22:58:35;4.63;;;0.93;;
21301;SDS011;10810;48.270;9.996;2023-12-20T23:01:11;1.90;;;1.00;;
21301;SDS011;10810;48.270;9.996;2023-12-20T23:38:04;2.07;;;1.10;;
21301;SDS011;10810;48.270;9.996;2023-12-20T23:40:43;1.33;;;0.90;;
21301;SDS011;10810;48.270;9.996;2023-12-20T23:43:17;1.23;;;0.93;;
21301;SDS011;10810;48.270;9.996;2023-12-20T23:45:58;3.33;;;1.10;;
21301;SDS011;10810;48.270;9.996;2023-12-20T23:48:27;1.37;;;0.90;;
21301;SDS011;10810;48.270;9.996;2023-12-20T23:51:00;4.17;;;1.20;;
21301;SDS011;10810;48.270;9.996;2023-12-20T23:53:44;3.20;;;0.97;;
21301;SDS011;10810;48.270;9.996;2023-12-20T23:56:27;2.10;;;0.90;;
